メインページ
METAR-TAF:

METAR-TAF

空港 :

オデッサ国際空港

オデッサ, ウクライナ

緯度: 46-26N, 経度: 030-46E, 海抜: 42m

現時点の気象観測

当レポートは24分前の19:30(UTC)に作成
無風
気温 15°C
湿度 77%
気圧 1024 hPa
視程10km以上
1,500メートル以下は雲なし、積乱雲なし

METAR: UKOO 181930Z 00000MPS CAVOK 15/11 Q1024 R34/090060 NOSIG

時間: 22:54 (19:54 UTC)

予報

当レポートは2時間51分前の17:03(UTC)に作成
予報は18日の 18時(UTC)から 19日の 18時(UTC)まで有効
西の風 6kt
視程: 2100m
高度700ftの千切れ雲あり
高度2000ftの雲は散在している, 積乱雲.
確率 40% :
18日の 18時(UTC)から 19日の 05時(UTC)まで一時的に
視程: 0300m
高度200ftの
19日の 05時(UTC)から 19日の 06時(UTC)まで徐々に
の風 6kt
視程: 6000m

TAF: UKOO 181703Z 1818/1918 26003MPS 2100 BR BKN007 SCT020CB PROB40 TEMPO 1818/1905 0300 FG VV002 BECMG 1905/1906 36003MPS 6000 NSW

4,000以上の空港の気象観測と天気予報(METAR報とTAF報)

利用可能な観測所は地図上に黄色い丸と赤い丸で示す。

丸の上にカーソルを重ねると観測所名を参照できる。

次にクリックすると気象観測と天気予報を参照できる。

マップの切り替え:黒色「×」印の緑ボタンをクリックして拡大、「-」印の緑ボタンをクリックして縮小、緑色の三角印をクリックして隣りの地図に切り替え


METAR-TAF: